Time;durP1;ratioP1;P1;durP2;ratioP2;P2;SDS_P1;SDS_P2;PMS_P1;PMS_P2;Temp;Humidity;BMP_temperature;BMP_pressure;BME280_temperature;BME280_humidity;BME280_pressure;Samples;Min_cycle;Max_cycle;Signal;HPM_P1;HPM_P2
2022/01/13 00:00:36;;;;;;;15.80;5.90;;;;;;;-9.95;48.29;99533.16;5071248;28;20048;-68
2022/01/13 00:03:02;;;;;;;22.07;7.13;;;;;;;-9.80;48.07;99527.38;5067740;28;20417;-66
2022/01/13 00:05:30;;;;;;;16.50;6.07;;;;;;;-9.90;48.33;99516.84;5055619;28;20108;-69
2022/01/13 00:07:58;;;;;;;20.23;6.77;;;;;;;-9.97;48.67;99520.06;5056011;28;20049;-69
2022/01/13 00:10:25;;;;;;;14.15;5.25;;;;;;;-9.96;48.67;99526.22;5051717;28;20396;-70
2022/01/13 00:13:02;;;;;;;14.15;4.95;;;;;;;-9.93;48.35;99522.41;5081339;28;20423;-69
2022/01/13 00:15:47;;;;;;;18.37;5.43;;;;;;;-10.02;48.03;99495.03;5069535;28;20129;-68
2022/01/13 00:18:19;;;;;;;19.60;6.90;;;;;;;-9.80;47.83;99511.50;5053160;28;20517;-69
2022/01/13 00:26:14;;;;;;;16.70;5.53;;;;;;;-9.87;48.11;99509.44;5071996;28;20099;-68
2022/01/13 00:28:45;;;;;;;21.05;6.32;;;;;;;-9.93;48.22;99520.63;5071767;28;20075;-68
2022/01/13 00:31:11;;;;;;;17.03;6.13;;;;;;;-9.97;48.18;99506.03;5067581;28;20060;-67
2022/01/13 00:33:45;;;;;;;18.27;6.70;;;;;;;-10.01;48.42;99509.94;5062806;28;20512;-69
2022/01/13 00:36:12;;;;;;;16.70;5.57;;;;;;;-10.11;48.70;99494.13;5091192;28;20136;-69
2022/01/13 00:38:39;;;;;;;19.60;5.90;;;;;;;-10.01;48.53;99502.00;5082224;28;20048;-68
2022/01/13 00:41:05;;;;;;;17.27;5.67;;;;;;;-9.97;48.36;99496.25;5069789;28;20139;-69
2022/01/13 00:43:36;;;;;;;25.50;6.10;;;;;;;-10.02;48.77;99487.09;5071252;28;20052;-69
2022/01/13 00:46:04;;;;;;;18.87;6.27;;;;;;;-9.94;48.49;99481.91;5068451;28;20568;-69
2022/01/13 00:48:31;;;;;;;18.17;6.97;;;;;;;-9.98;48.60;99462.84;5070109;28;20537;-69
2022/01/13 00:50:57;;;;;;;22.00;5.80;;;;;;;-9.98;48.65;99469.97;5077038;28;20051;-69
2022/01/13 00:53:24;;;;;;;22.67;7.03;;;;;;;-9.95;48.72;99463.53;5071575;28;20040;-68
2022/01/13 00:55:58;;;;;;;14.53;5.77;;;;;;;-9.83;48.41;99452.59;5071394;28;20044;-68
2022/01/13 00:58:26;;;;;;;19.47;5.03;;;;;;;-9.84;48.21;99450.91;5072602;28;20455;-68
2022/01/13 01:00:52;;;;;;;23.60;5.83;;;;;;;-9.87;48.60;99453.03;5076868;28;20090;-69
2022/01/13 01:03:20;;;;;;;18.43;5.47;;;;;;;-9.98;48.73;99441.69;5076863;28;20059;-68
2022/01/13 01:05:48;;;;;;;20.93;6.00;;;;;;;-10.02;48.69;99444.78;5070146;28;20139;-69
2022/01/13 01:08:14;;;;;;;;;;;;;;;-10.01;48.79;99439.34;5059712;28;20079;-69
2022/01/13 01:10:40;;;;;;;19.23;5.73;;;;;;;-10.04;49.06;99425.59;5051815;28;19978;-68
2022/01/13 01:13:16;;;;;;;14.80;5.57;;;;;;;-10.12;48.83;99413.09;5070225;28;20098;-69
2022/01/13 01:15:47;;;;;;;17.10;5.60;;;;;;;-9.93;48.93;99433.31;5055951;28;20044;-68
2022/01/13 01:23:45;;;;;;;13.37;4.70;;;;;;;-9.80;48.69;99408.28;5069879;28;20056;-68
2022/01/13 01:28:53;;;;;;;16.90;5.67;;;;;;;-9.85;48.78;99401.59;5069424;28;20302;-68
2022/01/13 01:31:26;;;;;;;16.43;5.50;;;;;;;-9.73;48.63;99401.38;5052738;28;20048;-68
2022/01/13 01:34:14;;;;;;;19.67;5.67;;;;;;;-9.78;48.45;99399.19;5068884;28;20051;-68
2022/01/13 01:36:43;;;;;;;14.07;4.83;;;;;;;-9.74;48.53;99403.22;5073498;28;20056;-68
2022/01/13 01:39:09;;;;;;;19.30;5.43;;;;;;;-9.76;48.68;99399.84;5079051;28;20302;-68
2022/01/13 01:41:38;;;;;;;17.10;5.70;;;;;;;-9.94;48.80;99381.38;5073683;28;20541;-68
2022/01/13 01:44:05;;;;;;;18.53;5.83;;;;;;;-9.87;48.66;99400.94;5073816;28;20056;-68
2022/01/13 01:46:34;;;;;;;22.67;5.40;;;;;;;-9.91;48.80;99394.28;5074767;28;20098;-68
2022/01/13 01:49:04;;;;;;;21.23;6.27;;;;;;;-9.89;48.84;99381.72;5092274;28;20051;-67
2022/01/13 01:51:30;;;;;;;23.60;5.87;;;;;;;-9.98;48.93;99383.47;5091703;28;20590;-69
2022/01/13 01:53:58;;;;;;;18.27;6.47;;;;;;;-9.95;48.70;99369.13;5068240;28;20135;-68
2022/01/13 01:56:24;;;;;;;19.03;6.10;;;;;;;-9.89;48.68;99371.16;5074761;28;20052;-68
2022/01/13 01:58:50;;;;;;;16.57;5.50;;;;;;;-9.90;48.32;99368.69;5060425;28;20051;-68
2022/01/13 02:01:17;;;;;;;16.20;4.80;;;;;;;-9.92;48.51;99374.09;5062664;28;20147;-68
2022/01/13 02:03:43;;;;;;;17.17;5.33;;;;;;;-9.96;48.65;99375.41;5071583;28;20036;-68
2022/01/13 02:06:09;;;;;;;15.27;5.77;;;;;;;-9.89;48.56;99373.78;5074891;28;20054;-68
2022/01/13 02:08:35;;;;;;;16.27;5.70;;;;;;;-9.90;48.24;99361.56;5069935;28;20186;-68
2022/01/13 02:11:02;;;;;;;18.73;5.90;;;;;;;-9.94;48.32;99359.34;5067623;28;20059;-68
2022/01/13 02:13:33;;;;;;;;;;;;;;;-10.01;48.45;99362.63;5054466;28;20570;-68
2022/01/13 02:16:02;;;;;;;18.10;5.70;;;;;;;-10.06;48.31;99358.78;5055716;28;20388;-68
2022/01/13 02:18:30;;;;;;;19.63;5.73;;;;;;;-10.02;48.36;99360.13;5072503;28;20304;-68
2022/01/13 02:21:00;;;;;;;14.17;5.40;;;;;;;-9.98;48.30;99361.50;5070664;28;20049;-69
2022/01/13 02:23:32;;;;;;;17.37;5.47;;;;;;;-9.93;48.02;99358.38;5068461;28;20507;-69
2022/01/13 02:25:58;;;;;;;18.20;6.20;;;;;;;-10.00;48.24;99361.63;5054281;28;20057;-69
2022/01/13 02:28:25;;;;;;;20.57;6.63;;;;;;;-9.97;48.01;99350.75;5065171;28;20052;-69
2022/01/13 02:30:51;;;;;;;17.45;6.55;;;;;;;-10.03;48.30;99354.00;5073066;28;20055;-68
2022/01/13 02:33:17;;;;;;;16.10;6.03;;;;;;;-10.09;48.87;99367.00;5047723;28;20051;-68
2022/01/13 02:35:44;;;;;;;21.83;6.50;;;;;;;-10.03;48.53;99363.75;5065721;28;20506;-69
2022/01/13 02:38:12;;;;;;;18.73;6.17;;;;;;;-10.05;48.88;99371.00;5067020;28;20066;-69
2022/01/13 02:40:39;;;;;;;18.93;7.07;;;;;;;-10.09;49.08;99369.66;5063437;28;20047;-68
2022/01/13 02:43:06;;;;;;;27.65;9.30;;;;;;;-10.16;49.86;99358.84;5070982;28;20072;-68
2022/01/13 02:45:38;;;;;;;24.48;7.57;;;;;;;-10.28;50.25;99345.84;5076642;28;20543;-69
2022/01/13 02:50:51;;;;;;;19.33;7.47;;;;;;;-10.17;49.93;99359.84;5068362;28;20056;-68
2022/01/13 02:53:19;;;;;;;25.10;8.20;;;;;;;-10.15;50.21;99357.88;5052273;28;20045;-68
2022/01/13 02:55:45;;;;;;;19.30;6.40;;;;;;;-10.18;49.76;99361.63;5081711;28;20048;-67
2022/01/13 02:58:13;;;;;;;23.00;7.70;;;;;;;-10.10;49.78;99366.16;5092196;28;20331;-68
2022/01/13 03:00:40;;;;;;;23.53;6.80;;;;;;;-10.15;49.92;99360.50;5085432;28;20072;-68
2022/01/13 03:03:06;;;;;;;22.47;8.37;;;;;;;-10.17;49.69;99365.13;5072924;28;20131;-70
2022/01/13 03:05:37;;;;;;;23.87;8.40;;;;;;;-10.18;49.89;99372.22;5069850;28;20045;-67
2022/01/13 03:08:05;;;;;;;19.70;7.50;;;;;;;-10.15;49.73;99373.75;5072924;28;20055;-69
2022/01/13 03:10:33;;;;;;;25.60;8.13;;;;;;;-10.16;49.75;99356.22;5073377;28;20125;-68
2022/01/13 03:13:00;;;;;;;21.93;7.67;;;;;;;-10.20;49.58;99355.66;5073080;28;20044;-68
2022/01/13 03:15:26;;;;;;;23.63;7.90;;;;;;;-10.35;49.95;99336.88;5063254;28;20064;-70
2022/01/13 03:17:53;;;;;;;28.43;7.27;;;;;;;-10.23;49.46;99328.69;5067157;28;20538;-73
2022/01/13 03:20:19;;;;;;;27.17;7.40;;;;;;;-10.22;49.14;99323.25;5071446;28;20055;-74
2022/01/13 03:22:45;;;;;;;20.00;7.67;;;;;;;-10.29;49.06;99324.88;5071372;28;20048;-72
2022/01/13 03:25:12;;;;;;;18.47;6.27;;;;;;;-10.35;49.02;99322.81;5067168;28;20349;-73
2022/01/13 03:27:41;;;;;;;21.27;7.88;;;;;;;-10.21;48.55;99314.34;5051390;28;20052;-73
2022/01/13 03:30:09;;;;;;;20.90;7.53;;;;;;;-10.57;48.47;99296.69;5052810;28;20618;-73
2022/01/13 03:32:36;;;;;;;23.83;8.10;;;;;;;-10.72;48.90;99299.03;5067048;28;20052;-72
2022/01/13 03:35:04;;;;;;;25.17;7.15;;;;;;;-10.70;48.40;99299.72;5071684;28;20135;-73
2022/01/13 03:37:31;;;;;;;26.90;7.30;;;;;;;-11.08;48.97;99295.50;5060267;28;20045;-73
2022/01/13 03:39:58;;;;;;;20.00;7.05;;;;;;;-11.30;49.16;99290.44;5051697;28;20102;-72
2022/01/13 03:42:24;;;;;;;20.33;7.50;;;;;;;-11.40;49.67;99277.28;5052666;28;20045;-74
2022/01/13 03:44:52;;;;;;;21.23;6.63;;;;;;;-11.38;49.57;99266.59;5068607;28;20063;-73
2022/01/13 03:47:18;;;;;;;23.03;7.17;;;;;;;-11.64;49.98;99263.75;5070906;28;20135;-74
2022/01/13 03:49:44;;;;;;;20.00;7.63;;;;;;;-11.77;50.38;99266.72;5072044;28;20051;-74
2022/01/13 03:52:55;;;;;;;22.43;7.40;;;;;;;-11.52;49.43;99257.34;5071917;28;20076;-74
2022/01/13 03:56:02;;;;;;;21.30;8.20;;;;;;;-11.47;49.07;99248.97;5070753;28;20060;-74
2022/01/13 03:59:35;;;;;;;21.47;7.00;;;;;;;-11.51;48.70;99227.31;4988725;28;20052;-73
2022/01/13 04:02:06;;;;;;;24.07;6.37;;;;;;;-11.68;48.77;99199.91;5068374;28;20044;-71
2022/01/13 04:04:35;;;;;;;24.83;7.60;;;;;;;-12.03;49.60;99212.00;5052269;28;20130;-72
2022/01/13 04:07:16;;;;;;;23.73;8.20;;;;;;;-12.12;49.60;99209.25;5057002;28;20102;-73
2022/01/13 04:10:23;;;;;;;23.67;6.80;;;;;;;-11.86;49.11;99205.97;5062145;28;20060;-73
2022/01/13 04:12:50;;;;;;;20.85;7.05;;;;;;;-11.81;49.04;99205.50;5058782;28;20539;-78
2022/01/13 04:15:18;;;;;;;23.40;6.63;;;;;;;-11.72;48.87;99220.47;5059665;28;20048;-77
2022/01/13 04:17:47;;;;;;;22.98;8.10;;;;;;;-11.63;48.50;99224.06;5068673;28;20497;-78
2022/01/13 04:20:13;;;;;;;20.93;7.63;;;;;;;-11.56;48.15;99217.19;5060123;28;20044;-78
2022/01/13 04:22:40;;;;;;;24.00;7.80;;;;;;;-11.60;47.98;99218.47;5063169;28;20068;-77
2022/01/13 04:25:07;;;;;;;25.50;8.20;;;;;;;-11.67;47.65;99185.75;5044853;28;20056;-78
2022/01/13 04:27:38;;;;;;;19.85;7.22;;;;;;;-11.57;48.11;99199.72;5072043;28;20144;-78
2022/01/13 04:32:41;;;;;;;21.95;6.38;;;;;;;-11.40;46.92;99184.91;5055592;28;20056;-76
2022/01/13 04:35:13;;;;;;;19.87;6.03;;;;;;;-11.98;47.64;99171.00;5057911;28;20103;-76
2022/01/13 04:37:39;;;;;;;23.93;6.27;;;;;;;-12.08;48.35;99178.16;5066401;28;20574;-76
2022/01/13 04:40:09;;;;;;;25.03;7.20;;;;;;;-11.94;48.15;99162.81;5053218;28;20045;-77
2022/01/13 04:42:36;;;;;;;16.90;5.93;;;;;;;-12.05;48.13;99169.13;5065807;28;20577;-75
2022/01/13 04:45:03;;;;;;;;;;;;;;;-12.21;48.32;99173.19;5082049;28;20448;-74
2022/01/13 04:47:30;;;;;;;19.70;6.70;;;;;;;-12.01;47.91;99178.44;5051920;28;19930;-75
2022/01/13 04:49:56;;;;;;;23.27;7.10;;;;;;;-11.93;47.98;99172.41;5063531;28;20126;-74
2022/01/13 04:52:24;;;;;;;16.80;6.30;;;;;;;-11.84;47.50;99169.72;5070857;28;20421;-74
2022/01/13 04:54:52;;;;;;;20.30;6.93;;;;;;;-11.85;47.41;99173.34;5071295;28;20554;-75
2022/01/13 04:57:19;;;;;;;23.13;7.17;;;;;;;-11.89;47.38;99185.13;5069048;28;20040;-74
2022/01/13 04:59:45;;;;;;;22.80;8.03;;;;;;;-11.94;47.54;99168.91;5060512;28;20490;-74
2022/01/13 05:02:11;;;;;;;25.73;8.60;;;;;;;-11.72;46.81;99167.72;5064015;28;20063;-74
2022/01/13 05:04:39;;;;;;;21.90;6.37;;;;;;;-12.05;47.26;99146.25;5068086;28;20211;-75
2022/01/13 05:07:05;;;;;;;24.33;6.80;;;;;;;-11.92;46.92;99152.97;5050078;28;20090;-75
2022/01/13 05:09:32;;;;;;;17.93;6.30;;;;;;;-11.98;47.17;99144.63;5048815;28;20049;-74
2022/01/13 05:11:59;;;;;;;;;;;;;;;-12.31;47.21;99128.41;5049902;28;20044;-75
2022/01/13 05:14:26;;;;;;;16.77;6.13;;;;;;;-12.72;48.11;99128.66;5051694;28;19924;-75
2022/01/13 05:19:32;;;;;;;18.73;6.93;;;;;;;-12.80;48.70;99120.63;5070557;28;20461;-74
2022/01/13 05:24:26;;;;;;;19.80;7.03;;;;;;;-12.48;47.92;99118.63;5051685;28;20059;-76
2022/01/13 05:26:54;;;;;;;20.33;7.22;;;;;;;-12.43;47.84;99104.06;5070553;28;20044;-75
2022/01/13 05:29:22;;;;;;;18.60;5.73;;;;;;;-12.37;47.45;99110.56;5072454;28;20048;-75
2022/01/13 05:31:50;;;;;;;29.03;10.00;;;;;;;-12.83;48.74;99111.22;5068811;28;20060;-76
2022/01/13 05:34:17;;;;;;;27.95;10.40;;;;;;;-12.72;48.30;99094.41;5070142;28;20040;-75
2022/01/13 05:36:43;;;;;;;26.80;9.90;;;;;;;-12.54;48.34;99088.41;5063064;28;20571;-74
2022/01/13 05:39:10;;;;;;;35.47;10.80;;;;;;;-12.43;47.69;99072.44;5070771;28;20525;-75
2022/01/13 05:41:36;;;;;;;24.80;6.75;;;;;;;-12.86;47.49;99089.59;5072227;28;20041;-75
2022/01/13 05:44:05;;;;;;;20.43;6.97;;;;;;;-13.04;48.15;99063.97;5068856;28;20053;-75
2022/01/13 05:46:32;;;;;;;19.10;6.27;;;;;;;-13.28;48.35;99059.16;5053238;28;20048;-74
2022/01/13 05:49:01;;;;;;;25.13;6.10;;;;;;;-13.39;48.92;99039.09;5064528;28;20539;-73
2022/01/13 05:51:27;;;;;;;18.43;5.63;;;;;;;-13.63;49.92;99045.59;5073918;28;20067;-74
2022/01/13 05:53:53;;;;;;;19.67;7.00;;;;;;;-13.47;49.67;99033.72;5069850;28;20053;-76
2022/01/13 05:56:20;;;;;;;41.93;13.73;;;;;;;-13.29;49.06;99036.44;5059832;28;20094;-75
2022/01/13 05:58:46;;;;;;;26.03;8.33;;;;;;;-13.40;49.82;99045.31;5073352;28;20106;-75
2022/01/13 06:01:14;;;;;;;24.10;7.80;;;;;;;-13.22;49.36;99027.00;5064343;28;20128;-75
2022/01/13 06:03:40;;;;;;;19.48;6.43;;;;;;;-13.37;49.83;99023.16;5070533;28;20483;-74
2022/01/13 06:06:06;;;;;;;22.10;7.40;;;;;;;-13.19;49.41;99041.69;5074276;28;20052;-74
2022/01/13 06:08:34;;;;;;;21.10;7.03;;;;;;;-13.23;49.37;99041.13;5073682;28;20086;-74
2022/01/13 06:11:00;;;;;;;19.40;6.10;;;;;;;-13.08;49.11;99035.44;5089224;28;20070;-74
2022/01/13 06:13:27;;;;;;;22.87;7.17;;;;;;;-13.05;48.55;99022.84;5069043;28;20092;-76
2022/01/13 06:15:53;;;;;;;15.70;5.53;;;;;;;-13.20;48.87;99032.97;5077010;28;20495;-73
2022/01/13 06:18:25;;;;;;;19.83;7.07;;;;;;;-13.69;49.75;99040.91;5074038;28;20052;-74
2022/01/13 06:20:51;;;;;;;22.17;6.80;;;;;;;-14.11;50.31;99058.53;5073990;28;20048;-74
2022/01/13 06:23:18;;;;;;;19.13;6.50;;;;;;;-14.27;50.36;99021.44;5050892;28;20055;-74
2022/01/13 06:25:45;;;;;;;18.57;6.17;;;;;;;-14.13;49.95;99035.97;5054109;28;20041;-73
2022/01/13 06:28:12;;;;;;;22.43;7.07;;;;;;;-14.36;51.01;99022.22;5052406;28;20045;-74
2022/01/13 06:30:38;;;;;;;17.57;5.83;;;;;;;-14.29;51.10;99004.97;5061073;28;20135;-75
2022/01/13 06:33:05;;;;;;;18.93;7.80;;;;;;;-14.35;51.10;98995.03;5072118;28;20052;-75
2022/01/13 06:35:33;;;;;;;16.20;5.90;;;;;;;-14.61;51.67;99005.97;5070778;28;20037;-74
2022/01/13 06:37:59;;;;;;;23.80;7.20;;;;;;;-14.58;52.34;99022.31;5061566;28;20056;-74
2022/01/13 06:40:25;;;;;;;16.10;6.03;;;;;;;-14.61;52.76;99019.09;5072084;28;20468;-73
2022/01/13 06:42:52;;;;;;;16.05;5.53;;;;;;;-14.69;52.83;99006.66;5049383;28;20532;-75
2022/01/13 06:45:18;;;;;;;17.23;5.83;;;;;;;-14.65;52.80;99007.22;5063854;28;20053;-73
2022/01/13 06:47:45;;;;;;;17.90;6.60;;;;;;;-14.46;52.25;98991.53;5067419;28;20493;-74
2022/01/13 06:50:16;;;;;;;24.40;6.73;;;;;;;-14.21;51.62;98993.78;5067380;28;20412;-75
2022/01/13 06:52:44;;;;;;;16.43;5.67;;;;;;;-14.09;51.60;98976.94;5069441;28;20048;-75
2022/01/13 06:55:10;;;;;;;14.43;5.60;;;;;;;-13.98;51.47;98962.84;5071768;28;20486;-73
2022/01/13 06:57:37;;;;;;;13.97;5.80;;;;;;;-13.99;51.18;98964.63;5056810;28;20052;-74
2022/01/13 07:00:04;;;;;;;16.63;5.78;;;;;;;-13.95;50.86;98956.50;5052343;28;20053;-74
2022/01/13 07:02:33;;;;;;;21.95;6.32;;;;;;;-13.90;50.65;98951.63;5064154;28;20047;-76
2022/01/13 07:04:59;;;;;;;16.10;5.67;;;;;;;-13.74;50.18;98953.69;5064368;28;20175;-74
2022/01/13 07:07:26;;;;;;;13.33;4.77;;;;;;;-13.73;49.96;98966.72;5075241;28;20057;-74
2022/01/13 07:09:53;;;;;;;12.55;4.28;;;;;;;-13.75;49.71;98967.81;5068997;28;20045;-75
2022/01/13 07:12:19;;;;;;;21.73;6.75;;;;;;;-13.88;49.95;98968.09;5070789;28;20040;-74
2022/01/13 07:14:45;;;;;;;19.57;5.77;;;;;;;-13.92;50.08;98966.72;5071915;28;20050;-76
2022/01/13 07:17:11;;;;;;;14.67;5.70;;;;;;;-13.76;49.81;98938.09;5057559;28;20040;-76
2022/01/13 07:19:38;;;;;;;14.47;5.13;;;;;;;-13.91;49.76;98936.84;5071875;28;20375;-74
2022/01/13 07:22:05;;;;;;;15.20;4.43;;;;;;;-14.03;50.48;98915.94;5067632;28;20053;-76
2022/01/13 07:24:31;;;;;;;;;;;;;;;-13.93;49.97;98930.91;5070237;28;20405;-76
2022/01/13 07:26:59;;;;;;;12.27;3.53;;;;;;;-13.91;49.59;98918.44;5070808;28;20030;-76
2022/01/13 07:29:25;;;;;;;;;;;;;;;-13.84;49.65;98923.00;5065092;28;20049;-75
2022/01/13 07:31:51;;;;;;;14.27;3.30;;;;;;;-13.83;49.83;98911.50;5064834;28;19963;-77
2022/01/13 07:34:17;;;;;;;15.70;6.43;;;;;;;-13.94;49.44;98882.75;5068451;28;20307;-77
2022/01/13 07:36:43;;;;;;;13.10;4.37;;;;;;;-14.01;49.86;98858.81;5071444;28;20037;-76
2022/01/13 07:39:10;;;;;;;15.50;4.30;;;;;;;-13.89;49.54;98854.25;5068069;28;20040;-77
2022/01/13 07:41:37;;;;;;;16.83;4.67;;;;;;;-13.82;49.34;98862.38;5063554;28;20044;-75
2022/01/13 07:44:06;;;;;;;14.90;5.20;;;;;;;-13.80;49.70;98863.09;5069615;28;20147;-77
2022/01/13 07:46:33;;;;;;;13.73;4.67;;;;;;;-13.79;50.12;98864.75;5052139;28;20071;-77
2022/01/13 07:49:00;;;;;;;14.97;5.53;;;;;;;-13.58;49.73;98879.50;5070582;28;20045;-77
2022/01/13 07:51:26;;;;;;;14.70;5.13;;;;;;;-13.66;50.11;98874.97;5070077;28;20316;-77
2022/01/13 07:53:52;;;;;;;15.30;4.77;;;;;;;-13.79;50.40;98871.78;5068967;28;20071;-77
2022/01/13 07:56:19;;;;;;;15.02;5.13;;;;;;;-13.50;50.24;98860.38;5072300;28;20595;-78
2022/01/13 07:58:46;;;;;;;16.33;6.13;;;;;;;-13.37;49.88;98837.19;5070003;28;20041;-77
2022/01/13 08:01:14;;;;;;;15.07;4.95;;;;;;;-13.07;49.62;98868.63;5068858;28;20066;-78
2022/01/13 08:03:39;;;;;;;;;;;;;;;-12.91;49.13;98834.63;5065353;28;20523;-77
2022/01/13 08:06:06;;;;;;;10.97;4.77;;;;;;;-12.96;49.18;98813.16;5066903;28;19948;-78
2022/01/13 08:08:35;;;;;;;36.67;4.95;;;;;;;-12.98;49.53;98817.75;5077394;28;20054;-76
2022/01/13 08:11:02;;;;;;;13.50;4.90;;;;;;;-13.12;49.54;98811.16;5075892;28;20036;-76
2022/01/13 08:13:28;;;;;;;19.20;6.35;;;;;;;-13.44;50.48;98817.72;5073494;28;20051;-76
2022/01/13 08:15:55;;;;;;;19.13;6.17;;;;;;;-13.41;50.34;98806.91;5071114;28;20143;-76
2022/01/13 08:21:08;;;;;;;32.03;5.72;;;;;;;-13.49;50.52;98785.75;5070646;28;20040;-77
2022/01/13 08:23:34;;;;;;;13.90;4.27;;;;;;;-13.48;50.35;98775.09;5069479;28;20067;-70
2022/01/13 08:26:00;;;;;;;14.23;5.33;;;;;;;-13.58;50.69;98755.91;5072720;28;20044;-74
2022/01/13 08:28:28;;;;;;;18.07;6.17;;;;;;;-13.44;50.34;98760.69;5071251;28;20139;-74
2022/01/13 08:30:55;;;;;;;17.67;6.20;;;;;;;-13.45;50.57;98747.66;5069681;28;20508;-74
2022/01/13 08:33:22;;;;;;;21.00;6.65;;;;;;;-13.05;50.01;98753.50;5045090;28;20049;-75
2022/01/13 08:35:48;;;;;;;;;;;;;;;-12.74;49.68;98724.19;5067727;28;20052;-74
2022/01/13 08:38:18;;;;;;;13.20;4.63;;;;;;;-12.42;48.54;98696.44;5069268;28;19926;-74
2022/01/13 08:40:46;;;;;;;17.50;5.30;;;;;;;-12.17;48.19;98673.75;5043308;28;20069;-74
2022/01/13 08:43:12;;;;;;;;;;;;;;;-11.97;47.82;98674.28;5060677;28;20522;-73
2022/01/13 08:45:38;;;;;;;20.67;5.57;;;;;;;-11.88;47.54;98672.53;5070261;28;19928;-76
2022/01/13 08:48:05;;;;;;;12.13;4.40;;;;;;;-11.98;47.75;98661.28;5051350;28;20048;-75
2022/01/13 08:50:36;;;;;;;18.77;5.47;;;;;;;-12.06;47.97;98643.66;5060723;28;20084;-75
2022/01/13 08:53:03;;;;;;;10.67;4.23;;;;;;;-12.49;48.51;98638.28;5067967;28;20522;-74
2022/01/13 08:55:28;;;;;;;13.73;4.78;;;;;;;-12.71;49.16;98643.06;5069018;28;20053;-73
2022/01/13 08:57:55;;;;;;;18.60;6.37;;;;;;;-12.68;48.97;98650.66;5069629;28;20055;-73
2022/01/13 09:00:22;;;;;;;10.80;5.40;;;;;;;-12.94;49.80;98649.81;5066748;28;20037;-75
2022/01/13 09:02:48;;;;;;;15.53;5.73;;;;;;;-13.03;49.57;98635.72;5068831;28;20076;-73
2022/01/13 09:05:17;;;;;;;15.17;5.03;;;;;;;-13.12;50.05;98626.94;5068212;28;20473;-76
2022/01/13 09:07:45;;;;;;;11.93;4.67;;;;;;;-13.16;50.28;98625.59;5062119;28;20059;-68
2022/01/13 09:10:13;;;;;;;20.57;6.07;;;;;;;-13.01;49.99;98610.91;5062417;28;20057;-67
2022/01/13 09:12:40;;;;;;;13.17;4.43;;;;;;;-13.00;49.84;98620.47;5070112;28;20048;-67
2022/01/13 09:15:16;;;;;;;16.40;5.00;;;;;;;-13.16;50.51;98604.53;5066563;28;20049;-67
2022/01/13 09:17:44;;;;;;;17.65;5.88;;;;;;;-13.21;50.78;98593.66;5061654;28;20045;-69
2022/01/13 09:20:11;;;;;;;13.10;4.72;;;;;;;-13.38;51.15;98580.34;5062487;28;20094;-66
2022/01/13 09:22:39;;;;;;;13.32;5.15;;;;;;;-13.31;50.89;98565.59;5062460;28;20037;-68
2022/01/13 09:25:10;;;;;;;13.00;3.67;;;;;;;-13.22;50.64;98550.72;5068824;28;20173;-67
2022/01/13 09:27:36;;;;;;;16.73;4.77;;;;;;;-13.24;50.97;98542.16;5066691;28;20045;-68
2022/01/13 09:30:04;;;;;;;15.97;5.23;;;;;;;-13.13;50.83;98559.50;5069510;28;20048;-68
2022/01/13 09:32:30;;;;;;;19.65;5.63;;;;;;;-13.03;51.01;98562.03;5050052;28;20386;-69
2022/01/13 09:34:56;;;;;;;16.10;6.07;;;;;;;-13.04;50.80;98570.91;5070507;28;20059;-68
2022/01/13 09:37:24;;;;;;;18.77;5.47;;;;;;;-13.14;50.88;98558.69;5059421;28;20136;-67
2022/01/13 09:39:50;;;;;;;19.63;6.30;;;;;;;-13.28;51.39;98565.28;5054894;28;20473;-68
2022/01/13 09:42:18;;;;;;;19.00;5.80;;;;;;;-13.07;51.01;98551.00;5051439;28;20484;-68
2022/01/13 09:44:48;;;;;;;12.77;4.30;;;;;;;-13.00;51.35;98535.44;5064819;28;20044;-68
2022/01/13 09:47:14;;;;;;;22.07;5.47;;;;;;;-13.02;51.22;98526.88;5063635;28;20044;-68
2022/01/13 09:49:43;;;;;;;18.80;5.73;;;;;;;-13.37;51.96;98518.03;5071576;28;21032;-68
2022/01/13 09:52:09;;;;;;;19.07;5.27;;;;;;;-13.25;51.83;98509.75;5073656;28;20056;-69
2022/01/13 09:54:35;;;;;;;24.90;5.50;;;;;;;-13.14;51.80;98498.16;5066669;28;20140;-68
2022/01/13 09:57:01;;;;;;;20.57;5.80;;;;;;;-13.25;51.95;98496.59;5066856;28;20128;-68
2022/01/13 09:59:29;;;;;;;15.27;4.90;;;;;;;-13.12;51.73;98506.72;5072796;28;20056;-68
2022/01/13 10:01:55;;;;;;;;;;;;;;;-13.07;51.74;98493.09;5068279;28;20040;-69
2022/01/13 10:04:21;;;;;;;16.43;4.50;;;;;;;-13.20;51.72;98447.94;5071978;28;20034;-68
2022/01/13 10:06:48;;;;;;;9.90;3.60;;;;;;;-12.96;51.55;98463.88;5069643;28;20426;-68
2022/01/13 10:09:15;;;;;;;14.77;4.32;;;;;;;-12.96;51.32;98444.63;5071531;28;20121;-67
2022/01/13 10:11:52;;;;;;;16.67;4.07;;;;;;;-12.97;51.80;98445.63;5071473;28;20155;-67
2022/01/13 10:16:56;;;;;;;21.03;4.53;;;;;;;-13.03;52.18;98439.16;5069441;28;20051;-67
2022/01/13 10:19:30;;;;;;;14.13;4.20;;;;;;;-13.02;52.08;98424.22;5070192;28;20056;-67
2022/01/13 10:21:59;;;;;;;13.27;4.10;;;;;;;-12.97;52.42;98409.56;5068726;28;20588;-66
2022/01/13 10:24:28;;;;;;;11.97;3.93;;;;;;;-12.83;52.04;98395.00;5066289;28;20149;-67
2022/01/13 10:27:05;;;;;;;16.57;5.03;;;;;;;-12.95;52.10;98356.78;5089928;28;20454;-66
2022/01/13 10:29:43;;;;;;;15.70;4.55;;;;;;;-12.92;52.34;98353.81;5072292;28;20413;-77
2022/01/13 10:32:14;;;;;;;10.07;3.33;;;;;;;-12.98;52.89;98336.84;5063981;28;20056;-74
2022/01/13 10:34:42;;;;;;;10.07;3.87;;;;;;;-13.08;53.21;98330.91;5072002;28;20463;-75
2022/01/13 10:37:13;;;;;;;14.27;4.07;;;;;;;-12.91;52.85;98313.34;5069503;28;20505;-77
2022/01/13 10:39:57;;;;;;;15.87;5.10;;;;;;;-12.86;53.04;98300.53;5068342;28;20087;-75
2022/01/13 10:45:26;;;;;;;10.60;3.10;;;;;;;-12.79;52.93;98294.63;5072292;28;20068;-75
2022/01/13 10:47:56;;;;;;;12.07;3.37;;;;;;;-12.74;53.02;98284.41;5059435;28;20068;-74
2022/01/13 10:50:28;;;;;;;16.80;3.77;;;;;;;-12.91;53.70;98273.06;5064534;28;20496;-72
2022/01/13 10:53:02;;;;;;;9.37;3.40;;;;;;;-12.84;53.48;98248.53;5058185;28;20135;-72
2022/01/13 10:55:30;;;;;;;15.23;3.27;;;;;;;-12.76;53.33;98242.47;5066919;28;20508;-74
2022/01/13 10:57:57;;;;;;;11.73;3.57;;;;;;;-12.71;53.77;98247.25;5067949;28;20064;-73
2022/01/13 11:00:25;;;;;;;9.10;2.97;;;;;;;-12.56;53.09;98245.63;5069078;28;20048;-73
2022/01/13 11:03:02;;;;;;;13.90;3.77;;;;;;;-12.70;53.71;98206.75;5079064;28;20048;-73
2022/01/13 11:05:31;;;;;;;13.70;2.53;;;;;;;-12.56;53.46;98198.19;5071681;28;20550;-73
2022/01/13 11:08:01;;;;;;;12.13;3.27;;;;;;;-12.57;53.89;98207.06;5063345;28;20049;-75
2022/01/13 11:10:28;;;;;;;9.10;2.87;;;;;;;-12.49;53.93;98176.47;5060609;28;20501;-71
2022/01/13 11:12:58;;;;;;;8.00;2.87;;;;;;;-12.58;54.19;98175.66;5067695;28;20136;-73
2022/01/13 11:15:25;;;;;;;12.20;3.50;;;;;;;-12.49;54.10;98145.66;5070700;28;20044;-72
2022/01/13 11:17:54;;;;;;;9.15;2.90;;;;;;;-12.42;54.49;98138.75;5070997;28;20040;-73
2022/01/13 11:20:22;;;;;;;10.33;2.93;;;;;;;-12.41;54.79;98124.56;5063760;28;20147;-73
2022/01/13 11:22:50;;;;;;;9.43;2.47;;;;;;;-12.44;55.13;98111.75;5058097;28;20510;-74
2022/01/13 11:25:19;;;;;;;10.47;2.80;;;;;;;-12.43;55.58;98131.84;5053419;28;20071;-72
2022/01/13 11:27:45;;;;;;;10.33;2.37;;;;;;;-12.41;55.43;98092.97;5071341;28;20505;-72
2022/01/13 11:30:13;;;;;;;11.90;3.45;;;;;;;-12.60;56.37;98098.63;5070376;28;20143;-72
2022/01/13 11:32:41;;;;;;;13.20;3.30;;;;;;;-12.43;56.20;98094.94;5077678;28;20424;-73
2022/01/13 11:35:10;;;;;;;10.45;3.03;;;;;;;-12.38;56.48;98057.56;5070087;28;20140;-71
2022/01/13 11:37:42;;;;;;;7.53;2.63;;;;;;;-12.42;57.16;98086.06;5068297;28;20483;-71
2022/01/13 11:40:34;;;;;;;8.90;2.87;;;;;;;-12.29;57.52;98047.81;5064536;28;20528;-71
2022/01/13 11:43:02;;;;;;;8.10;1.83;;;;;;;-12.36;58.63;98028.41;5068850;28;20048;-69
2022/01/13 11:45:29;;;;;;;9.43;3.07;;;;;;;-12.36;59.13;98012.59;5080876;28;20123;-70
2022/01/13 11:48:15;;;;;;;10.97;3.33;;;;;;;-12.41;60.33;98005.19;5069584;28;20040;-70
2022/01/13 11:50:45;;;;;;;11.80;3.90;;;;;;;-12.40;60.92;98004.22;5061662;28;20048;-71
2022/01/13 11:53:20;;;;;;;10.57;2.70;;;;;;;-12.41;62.01;98002.56;5070386;28;20040;-71
2022/01/13 11:55:53;;;;;;;10.33;2.97;;;;;;;-12.30;62.17;98009.28;5070559;28;20056;-70
2022/01/13 11:58:23;;;;;;;8.73;2.87;;;;;;;-12.28;62.67;98031.81;5067481;28;20076;-71
2022/01/13 12:00:51;;;;;;;8.70;2.60;;;;;;;-12.06;62.24;98000.44;5065927;28;20048;-69